sensor_id;sensor_type;location;lat;lon;timestamp;P1;durP1;ratioP1;P2;durP2;ratioP2
54699;SDS011;40599;53.132;6.090;2023-06-19T00:01:21;14.98;;;12.10;;
54699;SDS011;40599;53.132;6.090;2023-06-19T00:03:47;12.00;;;10.70;;
54699;SDS011;40599;53.132;6.090;2023-06-19T00:06:14;14.65;;;12.05;;
54699;SDS011;40599;53.132;6.090;2023-06-19T00:08:40;13.13;;;11.68;;
54699;SDS011;40599;53.132;6.090;2023-06-19T00:11:07;13.27;;;11.97;;
54699;SDS011;40599;53.132;6.090;2023-06-19T00:13:33;17.48;;;15.70;;
54699;SDS011;40599;53.132;6.090;2023-06-19T00:16:00;15.07;;;11.25;;
54699;SDS011;40599;53.132;6.090;2023-06-19T00:20:52;14.90;;;11.70;;
54699;SDS011;40599;53.132;6.090;2023-06-19T00:23:21;15.30;;;12.20;;
54699;SDS011;40599;53.132;6.090;2023-06-19T00:28:13;14.43;;;12.77;;
54699;SDS011;40599;53.132;6.090;2023-06-19T00:30:40;14.77;;;11.82;;
54699;SDS011;40599;53.132;6.090;2023-06-19T00:33:06;11.85;;;10.65;;
54699;SDS011;40599;53.132;6.090;2023-06-19T00:35:35;13.03;;;11.73;;
54699;SDS011;40599;53.132;6.090;2023-06-19T00:38:01;12.73;;;11.07;;
54699;SDS011;40599;53.132;6.090;2023-06-19T00:40:28;12.38;;;10.45;;
54699;SDS011;40599;53.132;6.090;2023-06-19T00:42:55;13.90;;;11.37;;
54699;SDS011;40599;53.132;6.090;2023-06-19T00:45:21;11.32;;;10.15;;
54699;SDS011;40599;53.132;6.090;2023-06-19T00:47:49;12.77;;;11.37;;
54699;SDS011;40599;53.132;6.090;2023-06-19T00:50:15;11.23;;;10.02;;
54699;SDS011;40599;53.132;6.090;2023-06-19T00:55:07;15.50;;;11.13;;
54699;SDS011;40599;53.132;6.090;2023-06-19T01:00:01;13.97;;;11.17;;
54699;SDS011;40599;53.132;6.090;2023-06-19T01:02:32;12.63;;;10.87;;
54699;SDS011;40599;53.132;6.090;2023-06-19T01:07:44;14.27;;;11.10;;
54699;SDS011;40599;53.132;6.090;2023-06-19T01:10:13;12.75;;;11.07;;
54699;SDS011;40599;53.132;6.090;2023-06-19T01:12:42;11.73;;;10.20;;
54699;SDS011;40599;53.132;6.090;2023-06-19T01:15:15;12.67;;;10.50;;
54699;SDS011;40599;53.132;6.090;2023-06-19T01:17:42;12.38;;;10.48;;
54699;SDS011;40599;53.132;6.090;2023-06-19T01:20:09;12.23;;;10.43;;
54699;SDS011;40599;53.132;6.090;2023-06-19T01:22:36;12.97;;;10.47;;
54699;SDS011;40599;53.132;6.090;2023-06-19T01:25:02;13.02;;;11.18;;
54699;SDS011;40599;53.132;6.090;2023-06-19T01:27:30;13.93;;;10.93;;
54699;SDS011;40599;53.132;6.090;2023-06-19T01:35:08;17.17;;;11.03;;
54699;SDS011;40599;53.132;6.090;2023-06-19T01:37:36;14.07;;;10.40;;
54699;SDS011;40599;53.132;6.090;2023-06-19T01:40:03;11.83;;;9.87;;
54699;SDS011;40599;53.132;6.090;2023-06-19T01:42:31;11.67;;;9.97;;
54699;SDS011;40599;53.132;6.090;2023-06-19T01:44:58;14.93;;;10.97;;
54699;SDS011;40599;53.132;6.090;2023-06-19T01:47:25;12.10;;;10.43;;
54699;SDS011;40599;53.132;6.090;2023-06-19T01:49:51;17.95;;;10.85;;
54699;SDS011;40599;53.132;6.090;2023-06-19T01:52:17;14.45;;;9.65;;
54699;SDS011;40599;53.132;6.090;2023-06-19T01:54:43;11.40;;;10.05;;
54699;SDS011;40599;53.132;6.090;2023-06-19T01:57:10;14.65;;;10.25;;
54699;SDS011;40599;53.132;6.090;2023-06-19T01:59:36;13.32;;;10.85;;
54699;SDS011;40599;53.132;6.090;2023-06-19T02:02:02;15.63;;;10.88;;
54699;SDS011;40599;53.132;6.090;2023-06-19T02:06:55;12.03;;;10.20;;
54699;SDS011;40599;53.132;6.090;2023-06-19T02:09:21;12.27;;;10.75;;
54699;SDS011;40599;53.132;6.090;2023-06-19T02:11:47;13.50;;;9.68;;
54699;SDS011;40599;53.132;6.090;2023-06-19T02:14:13;18.50;;;10.95;;
54699;SDS011;40599;53.132;6.090;2023-06-19T02:16:39;10.73;;;9.60;;
54699;SDS011;40599;53.132;6.090;2023-06-19T02:19:11;11.63;;;10.20;;
54699;SDS011;40599;53.132;6.090;2023-06-19T02:21:38;11.13;;;9.93;;
54699;SDS011;40599;53.132;6.090;2023-06-19T02:24:04;12.75;;;9.80;;
54699;SDS011;40599;53.132;6.090;2023-06-19T02:26:31;10.90;;;9.80;;
54699;SDS011;40599;53.132;6.090;2023-06-19T02:28:57;11.20;;;10.10;;
54699;SDS011;40599;53.132;6.090;2023-06-19T02:31:23;11.13;;;9.77;;
54699;SDS011;40599;53.132;6.090;2023-06-19T02:33:50;14.93;;;9.82;;
54699;SDS011;40599;53.132;6.090;2023-06-19T02:38:45;10.37;;;9.23;;
54699;SDS011;40599;53.132;6.090;2023-06-19T02:41:12;11.43;;;9.27;;
54699;SDS011;40599;53.132;6.090;2023-06-19T02:43:42;12.57;;;9.83;;
54699;SDS011;40599;53.132;6.090;2023-06-19T02:46:08;13.17;;;9.47;;
54699;SDS011;40599;53.132;6.090;2023-06-19T02:48:34;11.57;;;9.45;;
54699;SDS011;40599;53.132;6.090;2023-06-19T02:51:01;13.32;;;10.43;;
54699;SDS011;40599;53.132;6.090;2023-06-19T02:53:27;15.10;;;9.73;;
54699;SDS011;40599;53.132;6.090;2023-06-19T02:55:53;11.48;;;9.52;;
54699;SDS011;40599;53.132;6.090;2023-06-19T02:58:19;11.10;;;9.70;;
54699;SDS011;40599;53.132;6.090;2023-06-19T03:00:46;12.82;;;9.15;;
54699;SDS011;40599;53.132;6.090;2023-06-19T03:03:12;10.68;;;9.27;;
54699;SDS011;40599;53.132;6.090;2023-06-19T03:05:38;13.18;;;10.38;;
54699;SDS011;40599;53.132;6.090;2023-06-19T03:08:04;13.30;;;10.30;;
54699;SDS011;40599;53.132;6.090;2023-06-19T03:10:31;15.23;;;9.98;;
54699;SDS011;40599;53.132;6.090;2023-06-19T03:12:57;13.50;;;10.27;;
54699;SDS011;40599;53.132;6.090;2023-06-19T03:15:24;20.17;;;10.50;;
54699;SDS011;40599;53.132;6.090;2023-06-19T03:20:16;13.47;;;10.17;;
54699;SDS011;40599;53.132;6.090;2023-06-19T03:22:42;13.95;;;9.95;;
54699;SDS011;40599;53.132;6.090;2023-06-19T03:25:08;13.30;;;10.20;;
54699;SDS011;40599;53.132;6.090;2023-06-19T03:27:35;12.65;;;10.00;;
54699;SDS011;40599;53.132;6.090;2023-06-19T03:32:31;12.50;;;9.93;;
54699;SDS011;40599;53.132;6.090;2023-06-19T03:34:57;11.25;;;9.52;;
54699;SDS011;40599;53.132;6.090;2023-06-19T03:37:23;12.40;;;9.82;;
54699;SDS011;40599;53.132;6.090;2023-06-19T03:39:50;9.23;;;8.23;;
54699;SDS011;40599;53.132;6.090;2023-06-19T03:42:16;11.13;;;8.77;;
54699;SDS011;40599;53.132;6.090;2023-06-19T03:44:42;8.63;;;7.72;;
54699;SDS011;40599;53.132;6.090;2023-06-19T03:47:08;9.90;;;7.20;;
54699;SDS011;40599;53.132;6.090;2023-06-19T03:49:34;12.00;;;6.68;;
54699;SDS011;40599;53.132;6.090;2023-06-19T03:52:01;9.38;;;8.50;;
54699;SDS011;40599;53.132;6.090;2023-06-19T03:54:27;7.80;;;6.97;;
54699;SDS011;40599;53.132;6.090;2023-06-19T03:56:53;9.43;;;5.72;;
54699;SDS011;40599;53.132;6.090;2023-06-19T03:59:20;9.57;;;6.57;;
54699;SDS011;40599;53.132;6.090;2023-06-19T04:01:46;6.82;;;5.90;;
54699;SDS011;40599;53.132;6.090;2023-06-19T04:04:12;7.50;;;5.28;;
54699;SDS011;40599;53.132;6.090;2023-06-19T04:06:38;5.72;;;5.10;;
54699;SDS011;40599;53.132;6.090;2023-06-19T04:09:04;5.20;;;4.70;;
54699;SDS011;40599;53.132;6.090;2023-06-19T04:11:31;10.85;;;5.15;;
54699;SDS011;40599;53.132;6.090;2023-06-19T04:13:57;7.75;;;4.70;;
54699;SDS011;40599;53.132;6.090;2023-06-19T04:16:23;8.10;;;5.15;;
54699;SDS011;40599;53.132;6.090;2023-06-19T04:18:49;7.20;;;6.50;;
54699;SDS011;40599;53.132;6.090;2023-06-19T04:21:15;6.95;;;6.22;;
54699;SDS011;40599;53.132;6.090;2023-06-19T04:23:41;6.40;;;5.80;;
54699;SDS011;40599;53.132;6.090;2023-06-19T04:26:07;6.68;;;4.72;;
54699;SDS011;40599;53.132;6.090;2023-06-19T04:28:34;7.38;;;4.80;;
54699;SDS011;40599;53.132;6.090;2023-06-19T04:31:00;6.30;;;5.70;;
54699;SDS011;40599;53.132;6.090;2023-06-19T04:33:27;5.65;;;4.93;;
54699;SDS011;40599;53.132;6.090;2023-06-19T04:35:57;6.90;;;5.83;;
54699;SDS011;40599;53.132;6.090;2023-06-19T04:38:23;6.60;;;5.60;;
54699;SDS011;40599;53.132;6.090;2023-06-19T04:40:50;5.80;;;5.20;;
54699;SDS011;40599;53.132;6.090;2023-06-19T04:43:16;6.67;;;5.97;;
54699;SDS011;40599;53.132;6.090;2023-06-19T04:45:42;6.75;;;6.10;;
54699;SDS011;40599;53.132;6.090;2023-06-19T04:48:08;8.23;;;7.53;;
54699;SDS011;40599;53.132;6.090;2023-06-19T04:50:35;13.85;;;5.45;;
54699;SDS011;40599;53.132;6.090;2023-06-19T04:53:01;5.57;;;4.93;;
54699;SDS011;40599;53.132;6.090;2023-06-19T04:55:27;7.25;;;5.78;;
54699;SDS011;40599;53.132;6.090;2023-06-19T04:57:53;7.00;;;5.68;;
54699;SDS011;40599;53.132;6.090;2023-06-19T05:00:20;8.80;;;7.97;;
54699;SDS011;40599;53.132;6.090;2023-06-19T05:02:48;18.70;;;17.30;;
54699;SDS011;40599;53.132;6.090;2023-06-19T05:05:15;6.30;;;5.70;;
54699;SDS011;40599;53.132;6.090;2023-06-19T05:07:41;7.55;;;6.13;;
54699;SDS011;40599;53.132;6.090;2023-06-19T05:10:07;7.30;;;5.68;;
54699;SDS011;40599;53.132;6.090;2023-06-19T05:15:00;7.03;;;6.33;;
54699;SDS011;40599;53.132;6.090;2023-06-19T05:17:26;10.25;;;6.40;;
54699;SDS011;40599;53.132;6.090;2023-06-19T05:19:52;9.48;;;7.15;;
54699;SDS011;40599;53.132;6.090;2023-06-19T05:22:19;10.45;;;7.07;;
54699;SDS011;40599;53.132;6.090;2023-06-19T05:24:46;9.17;;;7.43;;
54699;SDS011;40599;53.132;6.090;2023-06-19T05:27:13;8.82;;;7.13;;
54699;SDS011;40599;53.132;6.090;2023-06-19T05:29:39;9.38;;;8.18;;
54699;SDS011;40599;53.132;6.090;2023-06-19T05:32:05;11.38;;;8.18;;
54699;SDS011;40599;53.132;6.090;2023-06-19T05:34:31;10.40;;;8.07;;
54699;SDS011;40599;53.132;6.090;2023-06-19T05:36:58;11.05;;;7.32;;
54699;SDS011;40599;53.132;6.090;2023-06-19T05:39:26;11.37;;;9.70;;
54699;SDS011;40599;53.132;6.090;2023-06-19T05:41:52;11.95;;;8.38;;
54699;SDS011;40599;53.132;6.090;2023-06-19T05:44:18;15.48;;;11.98;;
54699;SDS011;40599;53.132;6.090;2023-06-19T05:46:44;11.40;;;9.88;;
54699;SDS011;40599;53.132;6.090;2023-06-19T05:49:10;17.27;;;15.35;;
54699;SDS011;40599;53.132;6.090;2023-06-19T05:51:36;17.88;;;13.13;;
54699;SDS011;40599;53.132;6.090;2023-06-19T05:54:03;18.15;;;14.05;;
54699;SDS011;40599;53.132;6.090;2023-06-19T05:56:32;18.77;;;13.73;;
54699;SDS011;40599;53.132;6.090;2023-06-19T05:59:02;24.53;;;14.13;;
54699;SDS011;40599;53.132;6.090;2023-06-19T06:01:28;24.27;;;16.77;;
54699;SDS011;40599;53.132;6.090;2023-06-19T06:03:55;24.17;;;17.70;;
54699;SDS011;40599;53.132;6.090;2023-06-19T06:06:24;24.63;;;18.77;;
54699;SDS011;40599;53.132;6.090;2023-06-19T06:08:51;27.83;;;20.07;;
54699;SDS011;40599;53.132;6.090;2023-06-19T06:13:43;30.10;;;20.40;;
54699;SDS011;40599;53.132;6.090;2023-06-19T06:16:09;27.17;;;19.20;;
54699;SDS011;40599;53.132;6.090;2023-06-19T06:18:36;28.98;;;20.85;;
54699;SDS011;40599;53.132;6.090;2023-06-19T06:21:02;28.73;;;19.67;;
54699;SDS011;40599;53.132;6.090;2023-06-19T06:23:29;27.63;;;20.73;;
54699;SDS011;40599;53.132;6.090;2023-06-19T06:25:55;27.35;;;19.40;;
54699;SDS011;40599;53.132;6.090;2023-06-19T06:28:27;26.27;;;20.03;;
54699;SDS011;40599;53.132;6.090;2023-06-19T06:30:53;31.30;;;22.85;;
54699;SDS011;40599;53.132;6.090;2023-06-19T06:33:20;49.80;;;25.90;;
54699;SDS011;40599;53.132;6.090;2023-06-19T06:35:46;43.50;;;23.42;;
54699;SDS011;40599;53.132;6.090;2023-06-19T06:38:12;36.78;;;23.42;;
54699;SDS011;40599;53.132;6.090;2023-06-19T06:40:38;39.85;;;24.50;;
54699;SDS011;40599;53.132;6.090;2023-06-19T06:43:06;42.17;;;25.33;;
54699;SDS011;40599;53.132;6.090;2023-06-19T06:45:32;38.20;;;25.15;;
54699;SDS011;40599;53.132;6.090;2023-06-19T06:47:59;39.47;;;26.55;;
54699;SDS011;40599;53.132;6.090;2023-06-19T06:50:25;40.60;;;26.38;;
54699;SDS011;40599;53.132;6.090;2023-06-19T06:52:51;46.83;;;28.52;;
54699;SDS011;40599;53.132;6.090;2023-06-19T06:55:17;47.95;;;29.13;;
54699;SDS011;40599;53.132;6.090;2023-06-19T06:57:43;45.92;;;29.38;;
54699;SDS011;40599;53.132;6.090;2023-06-19T07:00:09;54.47;;;32.72;;
54699;SDS011;40599;53.132;6.090;2023-06-19T07:02:37;56.43;;;31.67;;
54699;SDS011;40599;53.132;6.090;2023-06-19T07:05:06;55.37;;;32.97;;
54699;SDS011;40599;53.132;6.090;2023-06-19T07:07:32;50.33;;;30.83;;
54699;SDS011;40599;53.132;6.090;2023-06-19T07:09:58;46.67;;;29.02;;
54699;SDS011;40599;53.132;6.090;2023-06-19T07:12:24;52.42;;;28.58;;
54699;SDS011;40599;53.132;6.090;2023-06-19T07:14:54;43.23;;;27.13;;
54699;SDS011;40599;53.132;6.090;2023-06-19T07:17:20;45.30;;;26.57;;
54699;SDS011;40599;53.132;6.090;2023-06-19T07:19:46;47.75;;;27.17;;
54699;SDS011;40599;53.132;6.090;2023-06-19T07:22:13;50.55;;;29.33;;
54699;SDS011;40599;53.132;6.090;2023-06-19T07:27:05;50.03;;;29.73;;
54699;SDS011;40599;53.132;6.090;2023-06-19T07:29:32;46.75;;;28.70;;
54699;SDS011;40599;53.132;6.090;2023-06-19T07:31:58;49.67;;;27.58;;
54699;SDS011;40599;53.132;6.090;2023-06-19T07:34:27;49.43;;;28.30;;
54699;SDS011;40599;53.132;6.090;2023-06-19T07:36:53;42.22;;;24.83;;
54699;SDS011;40599;53.132;6.090;2023-06-19T07:39:20;41.85;;;24.92;;
54699;SDS011;40599;53.132;6.090;2023-06-19T07:41:46;42.22;;;25.13;;
54699;SDS011;40599;53.132;6.090;2023-06-19T07:44:12;36.00;;;22.60;;
54699;SDS011;40599;53.132;6.090;2023-06-19T07:46:42;31.93;;;20.43;;
54699;SDS011;40599;53.132;6.090;2023-06-19T07:49:08;35.08;;;21.77;;
54699;SDS011;40599;53.132;6.090;2023-06-19T07:51:35;30.20;;;20.45;;
54699;SDS011;40599;53.132;6.090;2023-06-19T07:54:01;26.92;;;19.85;;
54699;SDS011;40599;53.132;6.090;2023-06-19T07:56:27;30.08;;;19.05;;
54699;SDS011;40599;53.132;6.090;2023-06-19T07:58:54;26.58;;;17.05;;
54699;SDS011;40599;53.132;6.090;2023-06-19T08:01:20;23.15;;;17.38;;
54699;SDS011;40599;53.132;6.090;2023-06-19T08:03:55;23.30;;;16.45;;
54699;SDS011;40599;53.132;6.090;2023-06-19T08:06:21;22.23;;;15.97;;
54699;SDS011;40599;53.132;6.090;2023-06-19T08:08:48;21.02;;;15.10;;
54699;SDS011;40599;53.132;6.090;2023-06-19T08:11:14;23.85;;;15.90;;
54699;SDS011;40599;53.132;6.090;2023-06-19T08:13:40;19.52;;;15.23;;
54699;SDS011;40599;53.132;6.090;2023-06-19T08:16:06;21.77;;;15.68;;
54699;SDS011;40599;53.132;6.090;2023-06-19T08:18:32;29.60;;;16.15;;
54699;SDS011;40599;53.132;6.090;2023-06-19T08:20:58;21.88;;;18.17;;
54699;SDS011;40599;53.132;6.090;2023-06-19T08:23:25;23.83;;;15.25;;
54699;SDS011;40599;53.132;6.090;2023-06-19T08:25:51;21.42;;;15.27;;
54699;SDS011;40599;53.132;6.090;2023-06-19T08:28:17;22.45;;;15.18;;
54699;SDS011;40599;53.132;6.090;2023-06-19T08:30:44;18.63;;;14.77;;
54699;SDS011;40599;53.132;6.090;2023-06-19T08:33:10;19.43;;;14.30;;
54699;SDS011;40599;53.132;6.090;2023-06-19T08:35:38;23.43;;;15.10;;
54699;SDS011;40599;53.132;6.090;2023-06-19T08:38:04;20.92;;;14.85;;
54699;SDS011;40599;53.132;6.090;2023-06-19T08:40:30;17.75;;;13.85;;
54699;SDS011;40599;53.132;6.090;2023-06-19T08:42:56;20.45;;;14.23;;
54699;SDS011;40599;53.132;6.090;2023-06-19T08:45:22;17.95;;;13.30;;
54699;SDS011;40599;53.132;6.090;2023-06-19T08:47:48;16.58;;;13.70;;
54699;SDS011;40599;53.132;6.090;2023-06-19T08:50:19;16.52;;;14.25;;
54699;SDS011;40599;53.132;6.090;2023-06-19T08:52:45;19.40;;;13.60;;
54699;SDS011;40599;53.132;6.090;2023-06-19T08:55:11;18.42;;;15.98;;
54699;SDS011;40599;53.132;6.090;2023-06-19T08:57:40;21.50;;;13.98;;
54699;SDS011;40599;53.132;6.090;2023-06-19T09:00:07;20.30;;;14.37;;
54699;SDS011;40599;53.132;6.090;2023-06-19T09:02:42;22.10;;;14.93;;
54699;SDS011;40599;53.132;6.090;2023-06-19T09:05:09;21.20;;;15.17;;
54699;SDS011;40599;53.132;6.090;2023-06-19T09:07:36;23.03;;;16.50;;
54699;SDS011;40599;53.132;6.090;2023-06-19T09:10:24;23.30;;;14.82;;
54699;SDS011;40599;53.132;6.090;2023-06-19T09:12:56;21.60;;;14.97;;
54699;SDS011;40599;53.132;6.090;2023-06-19T09:15:22;21.83;;;15.00;;
54699;SDS011;40599;53.132;6.090;2023-06-19T09:17:59;20.65;;;15.02;;
54699;SDS011;40599;53.132;6.090;2023-06-19T09:20:26;19.42;;;14.82;;
54699;SDS011;40599;53.132;6.090;2023-06-19T09:22:56;22.97;;;15.53;;
54699;SDS011;40599;53.132;6.090;2023-06-19T09:25:22;22.23;;;15.33;;
54699;SDS011;40599;53.132;6.090;2023-06-19T09:27:49;23.63;;;15.18;;
54699;SDS011;40599;53.132;6.090;2023-06-19T09:30:15;22.15;;;14.80;;
54699;SDS011;40599;53.132;6.090;2023-06-19T09:32:42;24.17;;;16.27;;
54699;SDS011;40599;53.132;6.090;2023-06-19T09:35:08;21.50;;;15.38;;
54699;SDS011;40599;53.132;6.090;2023-06-19T09:37:35;20.63;;;15.77;;
54699;SDS011;40599;53.132;6.090;2023-06-19T09:40:02;24.58;;;14.70;;
54699;SDS011;40599;53.132;6.090;2023-06-19T09:42:36;22.20;;;16.07;;
54699;SDS011;40599;53.132;6.090;2023-06-19T09:45:04;24.67;;;15.20;;
54699;SDS011;40599;53.132;6.090;2023-06-19T09:50:03;20.57;;;15.03;;
54699;SDS011;40599;53.132;6.090;2023-06-19T09:52:29;20.75;;;15.43;;
54699;SDS011;40599;53.132;6.090;2023-06-19T09:57:23;20.88;;;15.50;;
54699;SDS011;40599;53.132;6.090;2023-06-19T09:59:53;27.88;;;16.02;;
54699;SDS011;40599;53.132;6.090;2023-06-19T10:02:21;22.97;;;16.00;;
54699;SDS011;40599;53.132;6.090;2023-06-19T10:07:14;21.87;;;14.63;;
54699;SDS011;40599;53.132;6.090;2023-06-19T10:09:41;24.43;;;16.77;;
54699;SDS011;40599;53.132;6.090;2023-06-19T10:12:14;28.73;;;17.27;;
54699;SDS011;40599;53.132;6.090;2023-06-19T10:14:46;26.87;;;17.53;;
54699;SDS011;40599;53.132;6.090;2023-06-19T10:17:16;25.97;;;17.00;;
54699;SDS011;40599;53.132;6.090;2023-06-19T10:19:50;28.80;;;18.10;;
54699;SDS011;40599;53.132;6.090;2023-06-19T10:22:20;26.30;;;18.67;;
54699;SDS011;40599;53.132;6.090;2023-06-19T10:24:49;25.13;;;17.50;;
54699;SDS011;40599;53.132;6.090;2023-06-19T10:27:20;27.13;;;16.63;;
54699;SDS011;40599;53.132;6.090;2023-06-19T10:29:51;23.70;;;17.30;;
54699;SDS011;40599;53.132;6.090;2023-06-19T10:32:19;26.90;;;16.77;;
54699;SDS011;40599;53.132;6.090;2023-06-19T10:34:46;26.70;;;16.48;;
54699;SDS011;40599;53.132;6.090;2023-06-19T10:37:12;24.87;;;17.33;;
54699;SDS011;40599;53.132;6.090;2023-06-19T10:39:39;23.42;;;17.02;;
54699;SDS011;40599;53.132;6.090;2023-06-19T10:42:06;22.08;;;16.02;;
54699;SDS011;40599;53.132;6.090;2023-06-19T10:44:32;27.80;;;17.00;;
54699;SDS011;40599;53.132;6.090;2023-06-19T10:46:58;27.00;;;16.15;;
54699;SDS011;40599;53.132;6.090;2023-06-19T10:49:25;22.50;;;14.88;;
54699;SDS011;40599;53.132;6.090;2023-06-19T10:51:51;20.23;;;16.40;;
54699;SDS011;40599;53.132;6.090;2023-06-19T10:54:22;26.77;;;16.47;;
54699;SDS011;40599;53.132;6.090;2023-06-19T10:56:48;23.42;;;16.48;;
54699;SDS011;40599;53.132;6.090;2023-06-19T10:59:16;27.20;;;17.23;;
54699;SDS011;40599;53.132;6.090;2023-06-19T11:01:44;21.77;;;14.57;;
54699;SDS011;40599;53.132;6.090;2023-06-19T11:04:11;21.87;;;14.17;;
54699;SDS011;40599;53.132;6.090;2023-06-19T11:06:38;24.37;;;15.63;;
54699;SDS011;40599;53.132;6.090;2023-06-19T11:09:08;26.37;;;17.13;;
54699;SDS011;40599;53.132;6.090;2023-06-19T11:11:36;21.43;;;16.67;;
54699;SDS011;40599;53.132;6.090;2023-06-19T11:14:02;20.43;;;15.93;;
54699;SDS011;40599;53.132;6.090;2023-06-19T11:16:28;21.13;;;15.82;;
54699;SDS011;40599;53.132;6.090;2023-06-19T11:18:57;29.23;;;17.30;;
54699;SDS011;40599;53.132;6.090;2023-06-19T11:21:34;33.33;;;20.37;;
54699;SDS011;40599;53.132;6.090;2023-06-19T11:24:03;23.57;;;18.67;;
54699;SDS011;40599;53.132;6.090;2023-06-19T11:26:34;25.40;;;17.73;;
54699;SDS011;40599;53.132;6.090;2023-06-19T11:29:01;22.93;;;17.30;;
54699;SDS011;40599;53.132;6.090;2023-06-19T11:31:28;20.33;;;15.53;;
54699;SDS011;40599;53.132;6.090;2023-06-19T11:33:58;24.33;;;17.42;;
54699;SDS011;40599;53.132;6.090;2023-06-19T11:36:26;22.30;;;15.73;;
54699;SDS011;40599;53.132;6.090;2023-06-19T11:38:52;22.00;;;15.45;;
54699;SDS011;40599;53.132;6.090;2023-06-19T11:41:25;22.98;;;16.50;;
54699;SDS011;40599;53.132;6.090;2023-06-19T11:44:03;27.70;;;16.80;;
54699;SDS011;40599;53.132;6.090;2023-06-19T11:46:31;21.67;;;17.03;;
54699;SDS011;40599;53.132;6.090;2023-06-19T11:49:13;21.80;;;17.00;;
54699;SDS011;40599;53.132;6.090;2023-06-19T11:51:39;25.13;;;16.57;;
54699;SDS011;40599;53.132;6.090;2023-06-19T11:54:07;23.60;;;16.73;;
54699;SDS011;40599;53.132;6.090;2023-06-19T11:56:34;20.50;;;16.40;;
54699;SDS011;40599;53.132;6.090;2023-06-19T11:59:00;22.40;;;17.03;;
54699;SDS011;40599;53.132;6.090;2023-06-19T12:01:27;23.02;;;17.77;;
54699;SDS011;40599;53.132;6.090;2023-06-19T12:03:53;21.38;;;15.85;;
54699;SDS011;40599;53.132;6.090;2023-06-19T12:06:19;22.40;;;15.63;;
54699;SDS011;40599;53.132;6.090;2023-06-19T12:08:46;21.30;;;15.23;;
54699;SDS011;40599;53.132;6.090;2023-06-19T12:11:12;22.25;;;15.55;;
54699;SDS011;40599;53.132;6.090;2023-06-19T12:13:41;23.83;;;15.05;;
54699;SDS011;40599;53.132;6.090;2023-06-19T12:16:07;23.27;;;15.17;;
54699;SDS011;40599;53.132;6.090;2023-06-19T12:21:00;19.97;;;13.10;;
54699;SDS011;40599;53.132;6.090;2023-06-19T12:23:26;19.73;;;13.27;;
54699;SDS011;40599;53.132;6.090;2023-06-19T12:25:52;17.60;;;12.93;;
54699;SDS011;40599;53.132;6.090;2023-06-19T12:28:18;19.20;;;12.43;;
54699;SDS011;40599;53.132;6.090;2023-06-19T12:30:45;21.70;;;12.90;;
54699;SDS011;40599;53.132;6.090;2023-06-19T12:33:13;19.37;;;12.63;;
54699;SDS011;40599;53.132;6.090;2023-06-19T12:35:40;21.35;;;13.38;;
54699;SDS011;40599;53.132;6.090;2023-06-19T12:38:06;21.97;;;14.63;;
54699;SDS011;40599;53.132;6.090;2023-06-19T12:40:33;21.20;;;13.77;;
54699;SDS011;40599;53.132;6.090;2023-06-19T12:45:25;18.63;;;12.73;;
54699;SDS011;40599;53.132;6.090;2023-06-19T12:47:51;17.58;;;12.18;;
54699;SDS011;40599;53.132;6.090;2023-06-19T12:50:18;14.27;;;11.32;;
54699;SDS011;40599;53.132;6.090;2023-06-19T12:52:44;16.10;;;10.60;;
54699;SDS011;40599;53.132;6.090;2023-06-19T12:55:10;19.00;;;11.68;;
54699;SDS011;40599;53.132;6.090;2023-06-19T12:57:36;15.38;;;10.15;;
54699;SDS011;40599;53.132;6.090;2023-06-19T13:00:03;15.27;;;10.77;;
54699;SDS011;40599;53.132;6.090;2023-06-19T13:02:32;14.67;;;11.30;;
54699;SDS011;40599;53.132;6.090;2023-06-19T13:04:59;15.57;;;10.38;;
54699;SDS011;40599;53.132;6.090;2023-06-19T13:07:25;13.90;;;10.77;;
54699;SDS011;40599;53.132;6.090;2023-06-19T13:09:51;14.75;;;10.82;;
54699;SDS011;40599;53.132;6.090;2023-06-19T13:12:17;15.15;;;10.27;;
54699;SDS011;40599;53.132;6.090;2023-06-19T13:14:43;14.70;;;10.73;;
54699;SDS011;40599;53.132;6.090;2023-06-19T13:17:09;15.48;;;10.77;;
54699;SDS011;40599;53.132;6.090;2023-06-19T13:19:35;16.92;;;10.40;;
54699;SDS011;40599;53.132;6.090;2023-06-19T13:22:02;11.10;;;9.95;;
54699;SDS011;40599;53.132;6.090;2023-06-19T13:24:28;12.13;;;9.40;;
54699;SDS011;40599;53.132;6.090;2023-06-19T13:26:54;14.38;;;10.80;;
54699;SDS011;40599;53.132;6.090;2023-06-19T13:31:46;12.37;;;9.47;;
54699;SDS011;40599;53.132;6.090;2023-06-19T13:34:13;15.13;;;10.30;;
54699;SDS011;40599;53.132;6.090;2023-06-19T13:36:39;18.65;;;11.40;;
54699;SDS011;40599;53.132;6.090;2023-06-19T13:39:05;12.73;;;10.30;;
54699;SDS011;40599;53.132;6.090;2023-06-19T13:43:59;12.48;;;10.60;;
54699;SDS011;40599;53.132;6.090;2023-06-19T13:46:25;16.73;;;11.90;;
54699;SDS011;40599;53.132;6.090;2023-06-19T13:51:18;20.17;;;12.97;;
54699;SDS011;40599;53.132;6.090;2023-06-19T13:53:44;16.90;;;12.23;;
54699;SDS011;40599;53.132;6.090;2023-06-19T13:56:11;12.70;;;10.50;;
54699;SDS011;40599;53.132;6.090;2023-06-19T13:58:38;14.00;;;10.00;;
54699;SDS011;40599;53.132;6.090;2023-06-19T14:01:04;13.50;;;10.20;;
54699;SDS011;40599;53.132;6.090;2023-06-19T14:03:31;13.97;;;10.37;;
54699;SDS011;40599;53.132;6.090;2023-06-19T14:08:23;12.50;;;9.33;;
54699;SDS011;40599;53.132;6.090;2023-06-19T14:13:15;11.40;;;9.40;;
54699;SDS011;40599;53.132;6.090;2023-06-19T14:18:08;13.43;;;9.37;;
54699;SDS011;40599;53.132;6.090;2023-06-19T14:23:00;12.80;;;9.13;;
54699;SDS011;40599;53.132;6.090;2023-06-19T14:25:26;11.77;;;8.35;;
54699;SDS011;40599;53.132;6.090;2023-06-19T14:27:53;10.40;;;8.15;;
54699;SDS011;40599;53.132;6.090;2023-06-19T14:30:19;11.90;;;8.05;;
54699;SDS011;40599;53.132;6.090;2023-06-19T14:32:45;10.88;;;8.60;;
54699;SDS011;40599;53.132;6.090;2023-06-19T14:35:11;9.63;;;7.90;;
54699;SDS011;40599;53.132;6.090;2023-06-19T14:37:37;10.57;;;7.50;;
54699;SDS011;40599;53.132;6.090;2023-06-19T14:40:03;10.27;;;8.32;;
54699;SDS011;40599;53.132;6.090;2023-06-19T14:44:56;10.00;;;7.37;;
54699;SDS011;40599;53.132;6.090;2023-06-19T14:47:22;8.50;;;7.60;;
54699;SDS011;40599;53.132;6.090;2023-06-19T14:49:50;9.83;;;7.73;;
54699;SDS011;40599;53.132;6.090;2023-06-19T14:52:16;10.80;;;8.17;;
54699;SDS011;40599;53.132;6.090;2023-06-19T14:57:08;10.60;;;7.20;;
54699;SDS011;40599;53.132;6.090;2023-06-19T15:02:01;12.43;;;8.30;;
54699;SDS011;40599;53.132;6.090;2023-06-19T15:04:31;9.47;;;7.17;;
54699;SDS011;40599;53.132;6.090;2023-06-19T15:09:24;8.83;;;7.73;;
54699;SDS011;40599;53.132;6.090;2023-06-19T15:11:51;7.83;;;6.27;;
54699;SDS011;40599;53.132;6.090;2023-06-19T15:14:17;8.93;;;7.07;;
54699;SDS011;40599;53.132;6.090;2023-06-19T15:16:44;9.93;;;6.70;;
54699;SDS011;40599;53.132;6.090;2023-06-19T15:19:11;11.47;;;7.43;;
54699;SDS011;40599;53.132;6.090;2023-06-19T15:21:37;10.68;;;7.28;;
54699;SDS011;40599;53.132;6.090;2023-06-19T15:26:29;7.80;;;6.60;;
54699;SDS011;40599;53.132;6.090;2023-06-19T15:28:55;7.78;;;6.63;;
54699;SDS011;40599;53.132;6.090;2023-06-19T15:31:22;11.10;;;7.05;;
54699;SDS011;40599;53.132;6.090;2023-06-19T15:33:48;9.57;;;6.23;;
54699;SDS011;40599;53.132;6.090;2023-06-19T15:36:15;8.83;;;6.43;;
54699;SDS011;40599;53.132;6.090;2023-06-19T15:38:41;7.23;;;5.77;;
54699;SDS011;40599;53.132;6.090;2023-06-19T15:41:08;9.67;;;6.60;;
54699;SDS011;40599;53.132;6.090;2023-06-19T15:43:34;8.05;;;5.82;;